Aeroporto :
LOGIN :

Iscrizione | Disclaimer

   EN    FR    IT 

 










Sommario :    VFR   VFR Marginale   IFR   IFR Intensivo   IFR Molto Intensivo
Visibilità : 
Base nubi : 
>= 8 km
>= 3000ft
5 / 8 km
1000 / 3000 ft
1500m / 5 km
500 / 1000 ft
800 / 1500m
200 / 500 ft
< 800m
< 200 ft
Simboli :   Temporali  Nebbia  Neve Forte  Precipitazioni Forti  Vento > 20 kt
SIGMETs :   Varie  Temporali  Ghiacco  Turbolenza  Onda orograficha  Ceneri Vulcaniche






- Altitudine del aeroporto : 12 ft
- Codice IATA : NCE


LFMN - Nice

ULTIMO METAR :
  • 221500Z 08021KT CAVOK 14/09 Q1028 NOSIG

METARs OBSOLETI :
  • 221430Z 08018KT CAVOK 15/08 Q1029 NOSIG
  • 221400Z 08021KT CAVOK 15/07 Q1029 NOSIG
  • 221330Z 08020KT CAVOK 15/06 Q1029 NOSIG
  • 221300Z 07019KT CAVOK 15/07 Q1030 NOSIG
  • 221230Z 07020KT CAVOK 15/07 Q1030 NOSIG
  • 221200Z 08022KT CAVOK 15/06 Q1031 NOSIG

TAF TAF LFMN
Valido dal 22 a 15 ore il 23 a 21 ore UTC


221400Z 2215/2321 08020KT CAVOK
PROB40
TEMPO 2215/2311 08025G35KT
PROB30
TEMPO 2222/2308 36012KT
BECMG 2319/2321 34012KT
ATIS : +33 4 93 17 21 16



MetMap, La meteo Aeronautica in un colpo d'occhio ! - Copyright ORBIFLY Dicembre 2007 - Disclaimer

ORBIFLY MET'MAP TEAM :

Programmazione e sviluppo : Alexandra Zaïnal
Concezione : Baudouin d'Aumeries
Aiuto per la programmazione : Marc-Olivier Méhu
Supporto tecnico e logistico : Manuel Goepfert
Aiuto per la traduzione : Arnaldo La Scala

Contatto : metmap@orbifly.com




FONTI E CREDITI :

   NOAA